Time;durP1;ratioP1;P1;durP2;ratioP2;P2;SDS_P1;SDS_P2;PMS_P1;PMS_P2;Temp;Humidity;BMP_temperature;BMP_pressure;BME280_temperature;BME280_humidity;BME280_pressure;Samples;Min_cycle;Max_cycle;Signal;HPM_P1;HPM_P2
2022/03/29 04:15:24;;;;;;;3.50;3.28;;;3.20;99.90;;;;;;6109756;22;20179;-67
2022/03/29 04:17:51;;;;;;;3.47;3.17;;;3.20;99.90;;;;;;5035574;28;20676;-66
2022/03/29 04:20:18;;;;;;;3.30;3.03;;;3.10;99.90;;;;;;5036244;28;20237;-66
2022/03/29 04:22:45;;;;;;;3.65;3.35;;;3.10;99.90;;;;;;5036496;28;20608;-66
2022/03/29 04:25:12;;;;;;;3.17;2.97;;;3.10;99.90;;;;;;5036416;28;20740;-67
2022/03/29 04:27:39;;;;;;;3.53;3.22;;;3.10;99.90;;;;;;5036215;28;20205;-66
2022/03/29 04:30:07;;;;;;;3.00;2.90;;;3.10;99.90;;;;;;5036401;28;20237;-67
2022/03/29 04:32:37;;;;;;;3.30;3.10;;;3.20;99.90;;;;;;5036387;28;20202;-67
2022/03/29 04:35:05;;;;;;;3.40;3.10;;;3.20;99.90;;;;;;5036282;28;20253;-67
2022/03/29 04:37:32;;;;;;;2.92;2.72;;;3.20;99.90;;;;;;5036117;28;20204;-65
2022/03/29 04:39:59;;;;;;;3.00;2.80;;;3.20;99.90;;;;;;5036269;28;20201;-67
2022/03/29 04:42:26;;;;;;;3.35;3.05;;;3.20;99.90;;;;;;5036063;28;20197;-67
2022/03/29 04:44:52;;;;;;;2.97;2.78;;;3.20;99.90;;;;;;5036087;28;20271;-66
2022/03/29 04:47:19;;;;;;;2.50;2.40;;;3.20;99.90;;;;;;5036161;28;20284;-69
2022/03/29 04:49:48;;;;;;;3.67;3.47;;;3.20;99.90;;;;;;5036111;28;20247;-69
2022/03/29 04:52:14;;;;;;;3.80;3.50;;;3.20;99.90;;;;;;5035996;28;20205;-69
2022/03/29 04:54:41;;;;;;;4.93;4.40;;;3.20;99.90;;;;;;5035974;28;20247;-69
2022/03/29 04:57:08;;;;;;;9.80;5.10;;;3.20;99.90;;;;;;5035578;28;20304;-69
2022/03/29 04:59:35;;;;;;;5.53;4.88;;;3.20;99.90;;;;;;5035903;28;20209;-71
2022/03/29 05:02:02;;;;;;;6.47;5.25;;;3.20;99.90;;;;;;5034961;28;20292;-67
2022/03/29 05:04:29;;;;;;;5.25;4.65;;;3.10;99.90;;;;;;5035643;28;20545;-67
2022/03/29 05:06:57;;;;;;;4.88;4.35;;;3.10;99.90;;;;;;5035727;28;20312;-67
2022/03/29 05:09:24;;;;;;;5.32;4.43;;;3.20;99.90;;;;;;5035795;28;20240;-67
2022/03/29 05:11:51;;;;;;;4.85;4.38;;;3.20;99.90;;;;;;5035734;28;20286;-66
2022/03/29 05:14:17;;;;;;;6.20;4.60;;;3.10;99.90;;;;;;5035339;28;20683;-66
2022/03/29 05:16:44;;;;;;;4.00;3.70;;;3.20;99.90;;;;;;5035850;28;20253;-68
2022/03/29 05:19:11;;;;;;;5.35;4.35;;;3.20;99.90;;;;;;5035613;28;20201;-68
2022/03/29 05:21:38;;;;;;;4.15;3.83;;;3.30;99.90;;;;;;5035512;28;20699;-69
2022/03/29 05:24:07;;;;;;;4.13;3.83;;;3.30;99.90;;;;;;5035219;28;20657;-69
2022/03/29 05:26:34;;;;;;;4.30;3.55;;;3.30;99.90;;;;;;5035316;28;20322;-68
2022/03/29 05:29:02;;;;;;;4.72;4.13;;;3.30;99.90;;;;;;5035275;28;20594;-69
2022/03/29 05:31:29;;;;;;;5.22;4.60;;;3.30;99.90;;;;;;5035627;28;20205;-69
2022/03/29 05:33:56;;;;;;;5.35;4.63;;;3.30;99.90;;;;;;5035536;28;20292;-70
2022/03/29 05:36:24;;;;;;;5.00;4.60;;;3.30;99.90;;;;;;5034999;28;20268;-69
2022/03/29 05:38:51;;;;;;;4.80;4.22;;;3.30;99.90;;;;;;5034746;28;20288;-69
2022/03/29 05:41:20;;;;;;;4.55;4.15;;;3.40;99.90;;;;;;5035063;28;20201;-69
2022/03/29 05:43:48;;;;;;;4.22;3.83;;;3.40;99.90;;;;;;5035251;28;20201;-69
2022/03/29 05:48:59;;;;;;;4.43;3.97;;;3.50;99.90;;;;;;5035062;28;20184;-69
2022/03/29 05:51:28;;;;;;;4.10;3.70;;;3.60;99.90;;;;;;5034881;28;20210;-69
2022/03/29 05:53:56;;;;;;;3.55;3.35;;;3.60;99.90;;;;;;5034496;28;20672;-69
2022/03/29 05:56:25;;;;;;;4.60;4.20;;;3.60;99.90;;;;;;5033602;28;20221;-70
2022/03/29 05:58:52;;;;;;;4.45;4.05;;;3.70;99.90;;;;;;5034404;28;20201;-69
2022/03/29 06:01:19;;;;;;;4.90;4.40;;;3.70;99.90;;;;;;5034670;28;20240;-69
2022/03/29 06:03:46;;;;;;;4.60;4.20;;;3.80;99.90;;;;;;5034248;28;20201;-69
2022/03/29 06:06:14;;;;;;;5.25;4.40;;;3.80;99.90;;;;;;5034298;28;20225;-69
2022/03/29 06:08:41;;;;;;;5.35;4.25;;;3.90;99.90;;;;;;5034588;28;20255;-69
2022/03/29 06:11:08;;;;;;;4.60;4.15;;;4.00;99.90;;;;;;5034178;28;20682;-69
2022/03/29 06:13:37;;;;;;;5.68;4.60;;;4.00;99.90;;;;;;5034553;28;20300;-68
2022/03/29 06:16:05;;;;;;;5.55;4.05;;;4.10;99.90;;;;;;5034432;28;20300;-68
2022/03/29 06:18:33;;;;;;;5.22;4.72;;;4.30;99.90;;;;;;5034850;28;20295;-68
2022/03/29 06:21:00;;;;;;;4.53;4.10;;;4.40;99.90;;;;;;5034407;28;20679;-69
2022/03/29 06:23:27;;;;;;;4.68;4.25;;;4.50;99.90;;;;;;5034300;28;20201;-69
2022/03/29 06:25:55;;;;;;;4.43;4.10;;;4.70;99.90;;;;;;5035084;28;20261;-69
2022/03/29 06:28:22;;;;;;;4.97;4.15;;;4.80;99.90;;;;;;5036253;28;20275;-70
2022/03/29 06:30:50;;;;;;;4.28;3.88;;;5.00;99.90;;;;;;5034139;28;20255;-69
2022/03/29 06:33:17;;;;;;;6.47;4.85;;;5.20;99.90;;;;;;5033750;28;20662;-69
2022/03/29 06:35:45;;;;;;;6.78;4.82;;;5.30;99.90;;;;;;5033990;28;20217;-69
2022/03/29 06:38:12;;;;;;;5.45;4.63;;;5.40;99.90;;;;;;5033761;28;20212;-69
2022/03/29 06:40:39;;;;;;;5.43;4.70;;;5.50;99.90;;;;;;5033889;28;20201;-69
2022/03/29 06:43:06;;;;;;;5.75;5.20;;;5.60;99.90;;;;;;5033995;28;20248;-70
2022/03/29 06:45:33;;;;;;;5.55;5.05;;;5.80;99.90;;;;;;5033941;28;20225;-70
2022/03/29 06:48:01;;;;;;;6.05;5.40;;;5.90;99.90;;;;;;5033871;28;20201;-69
2022/03/29 06:50:29;;;;;;;6.45;5.68;;;6.10;99.90;;;;;;5033833;28;20211;-69
2022/03/29 06:52:57;;;;;;;5.85;5.25;;;6.30;99.90;;;;;;5033410;28;20676;-69
2022/03/29 06:55:24;;;;;;;5.80;5.20;;;6.60;99.90;;;;;;5033601;28;20225;-72
2022/03/29 06:57:51;;;;;;;5.43;4.93;;;7.00;99.90;;;;;;5033507;28;20244;-72
2022/03/29 07:00:18;;;;;;;5.40;4.90;;;7.60;98.10;;;;;;5033720;28;20201;-72
2022/03/29 07:02:45;;;;;;;4.82;4.43;;;8.00;92.50;;;;;;5033956;28;20231;-72
2022/03/29 07:05:14;;;;;;;6.28;5.20;;;8.40;85.70;;;;;;5033968;28;20223;-73
2022/03/29 07:07:41;;;;;;;4.97;4.40;;;8.80;78.90;;;;;;5033680;28;20221;-73
2022/03/29 07:12:55;;;;;;;4.88;4.40;;;9.70;62.20;;;;;;5033554;28;20184;-73
2022/03/29 07:15:23;;;;;;;4.88;4.47;;;10.00;58.00;;;;;;5033711;28;20217;-71
2022/03/29 07:17:54;;;;;;;5.03;4.57;;;10.10;54.00;;;;;;5033626;28;20216;-70
2022/03/29 07:20:23;;;;;;;5.65;5.05;;;10.20;53.80;;;;;;5033424;28;20235;-71
2022/03/29 07:22:52;;;;;;;7.80;5.63;;;10.30;52.00;;;;;;5034411;28;20201;-71
2022/03/29 07:25:20;;;;;;;6.13;5.53;;;10.10;51.10;;;;;;5035278;28;20217;-70
2022/03/29 07:27:49;;;;;;;6.53;5.93;;;9.90;52.20;;;;;;5039886;28;20312;-71
2022/03/29 07:30:16;;;;;;;9.27;6.32;;;9.80;52.40;;;;;;5040015;28;20204;-71
2022/03/29 07:32:45;;;;;;;7.53;6.20;;;9.60;52.60;;;;;;5040000;28;20680;-71
2022/03/29 07:35:14;;;;;;;11.23;6.00;;;9.50;53.60;;;;;;5039968;28;20204;-71
2022/03/29 07:37:42;;;;;;;7.28;5.28;;;9.40;55.00;;;;;;5039771;28;20197;-71
2022/03/29 07:40:11;;;;;;;7.57;5.57;;;9.40;55.90;;;;;;5039876;28;20239;-70
2022/03/29 07:42:37;;;;;;;5.72;5.13;;;9.50;56.10;;;;;;5039932;28;20293;-70
2022/03/29 07:45:06;;;;;;;5.25;4.75;;;9.50;55.60;;;;;;5039795;28;20192;-70
2022/03/29 07:47:34;;;;;;;6.90;5.10;;;9.50;54.80;;;;;;5039634;28;20243;-70
2022/03/29 07:50:01;;;;;;;6.70;5.78;;;9.50;54.60;;;;;;5039819;28;20201;-70
2022/03/29 07:52:28;;;;;;;6.93;5.53;;;9.40;54.20;;;;;;5039887;28;20255;-70
2022/03/29 07:54:57;;;;;;;6.65;5.43;;;9.30;54.90;;;;;;5039724;28;20291;-71
2022/03/29 07:57:24;;;;;;;7.88;5.15;;;9.30;54.20;;;;;;5039869;28;20200;-70
2022/03/29 07:59:51;;;;;;;7.60;6.68;;;9.30;54.40;;;;;;5039845;28;20229;-70
2022/03/29 08:02:18;;;;;;;10.77;7.30;;;9.30;55.40;;;;;;5039696;28;20204;-70
2022/03/29 08:04:45;;;;;;;10.18;7.32;;;9.30;55.50;;;;;;5039494;28;20684;-70
2022/03/29 08:07:12;;;;;;;8.02;6.63;;;9.30;54.80;;;;;;5039506;28;20231;-71
2022/03/29 08:09:39;;;;;;;10.30;7.47;;;9.30;54.60;;;;;;5039341;28;20207;-70
2022/03/29 08:12:08;;;;;;;10.85;7.25;;;9.40;56.10;;;;;;5039679;28;20236;-70
2022/03/29 08:14:36;;;;;;;10.90;7.80;;;9.50;55.50;;;;;;5039387;28;20627;-69
2022/03/29 08:17:02;;;;;;;10.13;7.55;;;9.50;55.20;;;;;;5039635;28;20260;-69
2022/03/29 08:19:30;;;;;;;13.95;7.70;;;9.60;56.00;;;;;;5039235;28;20200;-70
2022/03/29 08:21:57;;;;;;;11.55;7.53;;;9.70;54.00;;;;;;5039244;28;20575;-69
2022/03/29 08:24:25;;;;;;;12.02;8.00;;;9.90;53.90;;;;;;5039224;28;20232;-70
2022/03/29 08:26:54;;;;;;;9.60;7.10;;;10.10;53.60;;;;;;5039267;28;20237;-70
2022/03/29 08:29:22;;;;;;;10.68;7.75;;;10.30;51.60;;;;;;5040388;28;20204;-69
2022/03/29 08:31:52;;;;;;;9.93;6.95;;;10.60;52.80;;;;;;5039659;28;20208;-69
2022/03/29 08:34:19;;;;;;;9.63;7.22;;;10.90;51.60;;;;;;5039454;28;20209;-70
2022/03/29 08:36:49;;;;;;;10.30;6.40;;;11.10;49.50;;;;;;5038263;28;20248;-70
2022/03/29 08:39:16;;;;;;;6.35;5.72;;;11.40;49.70;;;;;;5036364;28;20186;-69
2022/03/29 08:41:47;;;;;;;9.13;6.90;;;11.60;49.60;;;;;;5036297;28;20201;-69
2022/03/29 08:44:14;;;;;;;10.07;7.22;;;11.70;50.30;;;;;;5036385;28;20186;-69
2022/03/29 08:46:42;;;;;;;7.88;6.70;;;11.90;48.40;;;;;;5035862;28;20262;-69
2022/03/29 08:49:10;;;;;;;7.35;6.22;;;12.10;48.40;;;;;;5035869;28;20567;-69
2022/03/29 08:51:39;;;;;;;7.75;6.05;;;12.20;47.20;;;;;;5035852;28;20792;-69
2022/03/29 08:54:07;;;;;;;7.60;5.63;;;12.30;48.90;;;;;;5036068;28;20197;-68
2022/03/29 08:56:34;;;;;;;8.13;6.63;;;12.60;47.80;;;;;;5035586;28;20304;-69
2022/03/29 08:59:01;;;;;;;6.90;5.40;;;12.80;45.70;;;;;;5035748;28;20564;-68
2022/03/29 09:01:28;;;;;;;6.65;4.93;;;13.10;44.80;;;;;;5036133;28;20244;-68
2022/03/29 09:04:12;;;;;;;7.72;5.45;;;13.40;43.00;;;;;;5035632;28;20289;-68
2022/03/29 09:06:57;;;;;;;6.80;4.85;;;13.60;41.20;;;;;;5035699;28;20233;-69
2022/03/29 09:09:25;;;;;;;4.78;4.32;;;13.90;40.30;;;;;;5035802;28;20252;-69
2022/03/29 09:11:53;;;;;;;7.38;4.80;;;14.10;38.60;;;;;;5035946;28;20270;-69
2022/03/29 09:14:21;;;;;;;6.43;4.70;;;14.30;37.60;;;;;;5035452;28;20208;-68
2022/03/29 09:16:48;;;;;;;5.75;4.85;;;14.50;37.20;;;;;;5035297;28;20221;-69
2022/03/29 09:19:17;;;;;;;5.97;4.90;;;14.90;37.20;;;;;;5035461;28;20236;-69
2022/03/29 09:21:45;;;;;;;5.70;5.18;;;15.00;35.90;;;;;;5035609;28;20232;-69
2022/03/29 09:24:14;;;;;;;5.57;4.90;;;15.30;34.90;;;;;;5035563;28;20265;-69
2022/03/29 09:26:43;;;;;;;5.13;4.72;;;15.50;33.60;;;;;;5035456;28;20221;-69
2022/03/29 09:29:18;;;;;;;6.50;5.75;;;15.60;32.40;;;;;;5035601;28;20200;-69
2022/03/29 09:31:45;;;;;;;8.23;5.50;;;15.70;30.60;;;;;;5035211;28;20196;-69
2022/03/29 09:34:14;;;;;;;11.35;7.43;;;15.80;30.50;;;;;;5035318;28;20571;-69
2022/03/29 09:36:44;;;;;;;5.90;5.07;;;15.90;29.00;;;;;;5035690;28;20308;-69
2022/03/29 09:39:37;;;;;;;5.05;4.55;;;16.00;27.90;;;;;;5036208;28;20185;-69
2022/03/29 09:42:06;;;;;;;5.10;4.60;;;16.10;26.20;;;;;;5036240;28;20189;-69
2022/03/29 09:44:41;;;;;;;4.80;4.40;;;16.10;25.40;;;;;;5035378;28;20236;-69
2022/03/29 09:47:09;;;;;;;4.68;4.22;;;16.20;25.90;;;;;;5035194;28;20320;-69
2022/03/29 09:50:08;;;;;;;4.10;3.80;;;16.40;25.50;;;;;;5037098;28;20284;-69
2022/03/29 09:52:39;;;;;;;7.63;4.63;;;16.60;25.30;;;;;;4974284;28;20318;-70
2022/03/29 09:55:13;;;;;;;6.63;4.25;;;16.70;24.40;;;;;;5023171;28;20216;-69
2022/03/29 09:57:42;;;;;;;5.80;4.68;;;16.90;24.80;;;;;;5035047;28;20192;-69
2022/03/29 10:00:12;;;;;;;4.25;3.83;;;17.10;24.30;;;;;;5034982;28;20201;-69
2022/03/29 10:02:41;;;;;;;7.43;5.13;;;17.30;23.60;;;;;;5034392;28;20205;-67
2022/03/29 10:05:11;;;;;;;3.97;3.58;;;17.40;23.50;;;;;;5035692;28;20575;-68
2022/03/29 10:07:44;;;;;;;6.90;3.67;;;17.50;23.40;;;;;;5035410;28;20228;-69
2022/03/29 10:10:12;;;;;;;3.22;2.92;;;17.60;23.10;;;;;;5034673;28;20213;-69
2022/03/29 10:12:39;;;;;;;4.50;3.47;;;17.80;23.00;;;;;;5034081;28;20237;-69
2022/03/29 10:15:08;;;;;;;5.43;3.20;;;18.00;23.30;;;;;;5034183;28;20664;-69
2022/03/29 10:17:35;;;;;;;3.65;3.30;;;18.20;23.30;;;;;;5034023;28;20296;-69
2022/03/29 10:20:02;;;;;;;3.10;2.88;;;18.40;22.60;;;;;;5034344;28;20624;-69
2022/03/29 10:22:29;;;;;;;4.53;3.67;;;18.40;22.40;;;;;;5034185;28;20205;-69
2022/03/29 10:24:57;;;;;;;3.75;3.45;;;18.40;22.40;;;;;;5034400;28;20251;-70
2022/03/29 10:27:24;;;;;;;5.47;3.78;;;18.40;22.70;;;;;;5035059;28;20261;-70
2022/03/29 10:29:51;;;;;;;6.15;4.10;;;18.40;22.50;;;;;;5034761;28;20292;-69
2022/03/29 10:32:33;;;;;;;6.15;3.58;;;18.30;22.60;;;;;;5033917;28;20211;-69
2022/03/29 10:35:08;;;;;;;7.88;3.65;;;18.30;22.70;;;;;;5034007;28;20198;-69
2022/03/29 10:37:55;;;;;;;4.53;3.83;;;18.30;22.60;;;;;;5034415;28;20185;-69
2022/03/29 10:40:38;;;;;;;5.47;3.90;;;18.30;22.60;;;;;;5033920;28;20205;-69
2022/03/29 10:43:28;;;;;;;7.20;4.30;;;18.30;22.60;;;;;;5033990;28;20207;-69
2022/03/29 10:45:55;;;;;;;5.85;4.22;;;18.30;22.90;;;;;;5033972;28;20223;-71
2022/03/29 10:48:21;;;;;;;4.63;3.40;;;18.40;23.00;;;;;;5033975;28;20312;-70
2022/03/29 10:50:57;;;;;;;6.00;4.35;;;18.60;22.60;;;;;;5034941;28;20296;-71
2022/03/29 10:53:26;;;;;;;4.28;3.72;;;18.70;21.90;;;;;;5038548;28;20195;-69
2022/03/29 10:56:23;;;;;;;6.65;5.30;;;18.50;21.90;;;;;;5038151;28;20255;-69
2022/03/29 10:59:14;;;;;;;8.48;5.30;;;18.40;22.30;;;;;;5038316;28;20181;-69
2022/03/29 11:01:43;;;;;;;4.97;4.07;;;18.30;22.40;;;;;;5036502;28;20205;-70
2022/03/29 11:04:19;;;;;;;7.07;4.03;;;18.40;22.40;;;;;;5037904;28;20660;-70
2022/03/29 11:07:12;;;;;;;4.95;4.13;;;18.50;22.10;;;;;;5034128;28;20738;-70
2022/03/29 11:09:41;;;;;;;4.07;3.60;;;18.60;22.40;;;;;;5033461;28;20207;-69
2022/03/29 11:12:38;;;;;;;4.22;3.80;;;18.70;22.40;;;;;;5033077;28;20200;-69
2022/03/29 11:15:46;;;;;;;4.75;4.05;;;18.80;22.70;;;;;;5033421;28;20189;-69
2022/03/29 11:18:41;;;;;;;5.05;4.32;;;18.70;23.00;;;;;;5033471;28;20305;-69
2022/03/29 11:21:08;;;;;;;8.68;5.15;;;18.70;23.50;;;;;;4998466;28;20207;-70
2022/03/29 11:23:36;;;;;;;7.70;4.60;;;18.60;23.00;;;;;;5033436;28;20201;-70
2022/03/29 11:26:10;;;;;;;5.93;4.70;;;18.50;23.50;;;;;;5033380;28;20308;-70
2022/03/29 11:28:46;;;;;;;7.93;5.65;;;18.50;23.70;;;;;;5033490;28;20212;-70
2022/03/29 11:31:13;;;;;;;9.77;5.28;;;18.50;23.70;;;;;;5033443;28;20206;-69
2022/03/29 11:33:41;;;;;;;7.97;5.03;;;18.50;23.40;;;;;;5033463;28;20287;-70
2022/03/29 11:36:10;;;;;;;5.50;4.47;;;18.60;23.80;;;;;;5033501;28;20255;-71
2022/03/29 11:38:37;;;;;;;5.85;3.97;;;18.70;23.80;;;;;;5033339;28;20207;-71
2022/03/29 11:41:04;;;;;;;7.25;4.53;;;18.80;24.00;;;;;;5033474;28;20553;-71
2022/03/29 11:43:32;;;;;;;6.18;4.88;;;18.90;24.20;;;;;;5032974;28;20742;-71
2022/03/29 11:46:00;;;;;;;4.50;4.10;;;19.00;24.20;;;;;;5033150;28;20227;-69
2022/03/29 11:48:27;;;;;;;6.72;5.32;;;19.10;23.80;;;;;;5033083;28;20220;-70
2022/03/29 11:50:56;;;;;;;5.72;4.85;;;19.00;24.00;;;;;;5033354;28;20247;-70
2022/03/29 11:53:24;;;;;;;13.23;7.00;;;19.00;23.80;;;;;;5033204;28;20201;-69
2022/03/29 11:56:01;;;;;;;7.93;5.93;;;18.70;23.70;;;;;;5033169;28;20221;-71
2022/03/29 11:58:31;;;;;;;13.85;6.28;;;18.80;24.90;;;;;;5033339;28;20231;-70
2022/03/29 12:01:02;;;;;;;5.93;5.28;;;18.80;24.40;;;;;;5032894;28;20639;-70
2022/03/29 12:03:31;;;;;;;10.32;5.70;;;18.70;24.00;;;;;;5033359;28;20185;-70
2022/03/29 12:06:13;;;;;;;5.93;5.22;;;18.70;24.70;;;;;;5033134;28;20248;-70
2022/03/29 12:08:58;;;;;;;7.93;6.22;;;18.60;24.60;;;;;;5032835;28;20208;-70
2022/03/29 12:11:27;;;;;;;8.38;6.70;;;18.60;24.80;;;;;;5034275;28;20189;-70
2022/03/29 12:14:07;;;;;;;9.35;7.57;;;18.50;24.80;;;;;;5036846;28;20254;-71
2022/03/29 12:16:39;;;;;;;11.48;7.18;;;18.40;25.00;;;;;;5036645;28;20260;-70
2022/03/29 12:19:08;;;;;;;14.88;6.75;;;18.40;25.40;;;;;;5036559;28;20177;-70
2022/03/29 12:21:35;;;;;;;9.95;6.60;;;18.30;25.20;;;;;;5036412;28;20660;-70
2022/03/29 12:24:05;;;;;;;8.88;6.55;;;18.30;25.40;;;;;;5036317;28;20734;-70
2022/03/29 12:26:34;;;;;;;10.77;6.38;;;18.40;25.30;;;;;;5036491;28;20700;-70
2022/03/29 12:29:01;;;;;;;9.45;6.60;;;18.50;25.10;;;;;;5036537;28;20221;-70
2022/03/29 12:31:30;;;;;;;10.43;5.85;;;18.50;25.10;;;;;;5036462;28;20207;-70
2022/03/29 12:33:59;;;;;;;9.52;5.85;;;18.50;25.30;;;;;;5036146;28;20676;-69
2022/03/29 12:36:26;;;;;;;5.82;4.90;;;18.50;24.80;;;;;;5036422;28;20217;-69
2022/03/29 12:38:56;;;;;;;4.85;4.45;;;18.60;25.50;;;;;;5036170;28;20751;-70
2022/03/29 12:41:36;;;;;;;10.85;4.85;;;18.80;25.10;;;;;;5035999;28;20632;-70
2022/03/29 12:44:08;;;;;;;9.70;5.95;;;18.80;25.20;;;;;;5036980;28;20543;-70
2022/03/29 12:46:37;;;;;;;9.32;6.60;;;18.80;24.40;;;;;;5036160;28;20275;-70
2022/03/29 12:49:07;;;;;;;10.68;6.07;;;18.80;24.60;;;;;;5036142;28;20227;-70
2022/03/29 12:51:35;;;;;;;15.48;7.82;;;18.80;24.50;;;;;;5035894;28;20247;-70
2022/03/29 12:54:06;;;;;;;12.20;6.80;;;18.70;24.30;;;;;;5036065;28;20196;-70
2022/03/29 12:56:35;;;;;;;6.35;5.03;;;18.60;24.60;;;;;;5035966;28;20304;-70
2022/03/29 12:59:24;;;;;;;9.38;5.90;;;18.70;24.80;;;;;;5036326;28;20664;-71
2022/03/29 13:01:52;;;;;;;10.52;5.63;;;18.70;24.30;;;;;;5036848;28;20231;-70
2022/03/29 13:04:21;;;;;;;11.77;5.78;;;18.60;24.10;;;;;;5039866;28;20660;-70
2022/03/29 13:06:48;;;;;;;8.65;5.00;;;18.60;24.20;;;;;;5040452;28;20223;-70
2022/03/29 13:09:17;;;;;;;6.82;4.50;;;18.70;24.10;;;;;;5039077;28;20659;-70
2022/03/29 13:11:45;;;;;;;8.63;4.78;;;18.70;23.30;;;;;;5040427;28;20201;-70
2022/03/29 13:14:12;;;;;;;13.73;4.07;;;18.60;23.50;;;;;;5040600;28;20644;-71
2022/03/29 13:16:52;;;;;;;8.30;4.03;;;18.60;23.30;;;;;;5039770;28;20256;-71
2022/03/29 13:19:21;;;;;;;5.43;3.63;;;18.60;23.20;;;;;;5040480;28;20220;-71
2022/03/29 13:22:01;;;;;;;12.35;4.28;;;18.70;23.40;;;;;;5039535;28;20197;-71
2022/03/29 13:24:36;;;;;;;13.18;5.22;;;18.60;23.20;;;;;;5039762;28;20189;-71
2022/03/29 13:27:06;;;;;;;12.48;4.78;;;18.50;23.50;;;;;;5039398;28;20220;-71
2022/03/29 13:29:34;;;;;;;6.18;3.40;;;18.40;23.40;;;;;;5039894;28;20217;-71
2022/03/29 13:32:01;;;;;;;6.30;4.05;;;18.40;22.80;;;;;;5039562;28;20564;-71
2022/03/29 13:34:30;;;;;;;9.52;4.47;;;18.40;22.90;;;;;;5039329;28;20255;-70
2022/03/29 13:36:58;;;;;;;7.68;4.53;;;18.40;23.10;;;;;;5038843;28;20225;-71
2022/03/29 13:39:25;;;;;;;10.13;4.13;;;18.40;23.20;;;;;;5038279;28;20239;-71
2022/03/29 13:41:53;;;;;;;14.02;4.85;;;18.20;23.00;;;;;;5035087;28;20200;-70
2022/03/29 13:44:20;;;;;;;5.72;3.90;;;18.10;23.10;;;;;;5034641;28;20664;-71
2022/03/29 13:46:47;;;;;;;6.55;4.15;;;18.00;23.20;;;;;;5035234;28;20221;-71
2022/03/29 13:49:14;;;;;;;11.63;4.90;;;18.00;23.40;;;;;;5034591;28;20217;-70
2022/03/29 13:51:43;;;;;;;5.57;3.83;;;17.90;23.40;;;;;;5035732;28;20607;-70
2022/03/29 13:54:10;;;;;;;6.57;4.00;;;17.90;23.50;;;;;;5034931;28;20205;-70
2022/03/29 13:56:55;;;;;;;7.28;3.80;;;17.90;23.40;;;;;;5034705;28;20249;-70
2022/03/29 13:59:25;;;;;;;9.55;4.45;;;17.90;23.70;;;;;;5034873;28;20219;-69
2022/03/29 14:01:52;;;;;;;8.98;4.15;;;17.90;23.60;;;;;;5034876;28;20201;-68
2022/03/29 14:04:19;;;;;;;12.15;3.83;;;17.80;23.10;;;;;;5034710;28;20231;-68
2022/03/29 14:06:47;;;;;;;5.53;4.03;;;17.70;23.00;;;;;;5034202;28;20307;-68
2022/03/29 14:09:14;;;;;;;7.75;3.50;;;17.80;23.20;;;;;;5034463;28;20303;-68
2022/03/29 14:11:41;;;;;;;9.15;3.50;;;17.70;23.20;;;;;;5034205;28;20208;-68
2022/03/29 14:14:08;;;;;;;7.55;3.88;;;17.70;23.00;;;;;;5034385;28;20239;-68
2022/03/29 14:16:38;;;;;;;16.50;5.35;;;17.70;23.10;;;;;;5033863;28;20706;-69
2022/03/29 14:19:07;;;;;;;7.53;4.05;;;17.50;23.10;;;;;;5033976;28;20661;-68
2022/03/29 14:21:34;;;;;;;9.57;4.82;;;17.60;23.10;;;;;;5034323;28;20255;-67
2022/03/29 14:24:02;;;;;;;8.43;3.65;;;17.50;23.40;;;;;;5034178;28;20243;-67
2022/03/29 14:26:29;;;;;;;10.75;4.30;;;17.40;23.40;;;;;;5034040;28;20225;-68
2022/03/29 14:28:56;;;;;;;9.27;4.72;;;17.40;23.60;;;;;;5033796;28;20223;-68
2022/03/29 14:31:23;;;;;;;6.63;4.05;;;17.30;23.40;;;;;;5034293;28;20185;-68
2022/03/29 14:33:51;;;;;;;9.68;3.90;;;17.30;23.50;;;;;;5033972;28;20406;-68
2022/03/29 14:36:18;;;;;;;11.77;4.78;;;17.20;23.80;;;;;;5036265;28;20220;-68
2022/03/29 14:38:46;;;;;;;11.43;4.18;;;17.10;23.60;;;;;;5039156;28;20263;-68
2022/03/29 14:41:16;;;;;;;8.95;3.90;;;17.10;23.50;;;;;;5039070;28;20201;-67
2022/03/29 14:43:44;;;;;;;7.70;3.88;;;17.10;23.50;;;;;;5038777;28;20679;-67
2022/03/29 14:46:11;;;;;;;13.25;4.75;;;17.20;23.80;;;;;;5038472;28;20217;-68
2022/03/29 14:48:39;;;;;;;7.30;3.63;;;17.20;23.70;;;;;;5037551;28;20213;-67
2022/03/29 14:51:06;;;;;;;10.43;4.60;;;17.20;23.80;;;;;;5037333;28;20615;-67
2022/03/29 14:53:34;;;;;;;8.40;3.90;;;17.10;24.00;;;;;;5033660;28;20305;-68
2022/03/29 14:56:01;;;;;;;19.77;6.00;;;17.10;23.90;;;;;;5033720;28;20260;-68
2022/03/29 14:58:30;;;;;;;16.70;5.47;;;17.00;24.40;;;;;;5033667;28;20224;-68
2022/03/29 15:00:56;;;;;;;9.93;4.75;;;16.80;24.60;;;;;;5033469;28;20633;-67
2022/03/29 15:03:23;;;;;;;9.60;4.25;;;16.60;24.70;;;;;;5033207;28;20243;-67
2022/03/29 15:05:51;;;;;;;7.68;3.95;;;16.60;25.10;;;;;;5033370;28;20316;-68
2022/03/29 15:08:18;;;;;;;6.38;3.47;;;16.70;25.50;;;;;;5033264;28;20650;-67
2022/03/29 15:10:45;;;;;;;4.32;3.13;;;16.70;25.20;;;;;;5032953;28;20292;-68
2022/03/29 15:13:14;;;;;;;6.32;3.40;;;16.70;25.10;;;;;;5033160;28;20205;-68
2022/03/29 15:15:42;;;;;;;3.42;2.42;;;16.70;25.00;;;;;;5033026;28;20331;-68
2022/03/29 15:18:09;;;;;;;2.97;2.63;;;16.70;25.20;;;;;;5032820;28;20308;-68
2022/03/29 15:20:35;;;;;;;4.00;2.75;;;16.70;25.70;;;;;;5032920;28;20334;-68
2022/03/29 15:23:03;;;;;;;2.33;2.08;;;16.70;25.10;;;;;;5032965;28;20207;-68
2022/03/29 15:25:29;;;;;;;2.58;2.03;;;16.60;25.00;;;;;;5032876;28;20712;-68
2022/03/29 15:27:56;;;;;;;3.20;2.50;;;16.60;25.30;;;;;;5033144;28;20201;-68
2022/03/29 15:30:24;;;;;;;2.03;1.70;;;16.60;25.30;;;;;;5033366;28;20296;-68
2022/03/29 15:32:52;;;;;;;5.43;2.80;;;16.60;25.50;;;;;;5033207;28;20660;-68
2022/03/29 15:35:19;;;;;;;2.90;2.38;;;16.50;25.50;;;;;;5032688;28;20239;-68
2022/03/29 15:37:47;;;;;;;2.40;2.17;;;16.50;25.50;;;;;;5033197;28;20304;-67
2022/03/29 15:40:14;;;;;;;4.15;2.58;;;16.40;25.20;;;;;;5032861;28;20296;-68
2022/03/29 15:42:41;;;;;;;5.57;2.58;;;16.30;25.40;;;;;;5033127;28;20213;-70
2022/03/29 15:45:09;;;;;;;2.30;2.10;;;16.30;25.40;;;;;;5033416;28;20273;-70
2022/03/29 15:47:36;;;;;;;2.20;1.73;;;16.30;25.40;;;;;;5036260;28;20208;-70
2022/03/29 15:50:06;;;;;;;1.65;1.55;;;16.20;25.40;;;;;;5036940;28;20231;-70
2022/03/29 15:52:33;;;;;;;1.85;1.75;;;16.20;25.40;;;;;;5036641;28;20664;-70
2022/03/29 15:55:02;;;;;;;1.83;1.73;;;16.10;25.30;;;;;;5037242;28;20287;-71
2022/03/29 15:57:29;;;;;;;4.13;2.83;;;16.10;26.00;;;;;;5037994;28;20300;-70
2022/03/29 15:59:56;;;;;;;5.22;2.90;;;16.00;26.50;;;;;;5037070;28;20290;-69
2022/03/29 16:02:23;;;;;;;2.97;2.60;;;15.90;25.70;;;;;;5037224;28;20216;-69
2022/03/29 16:04:50;;;;;;;2.85;2.20;;;15.80;26.00;;;;;;5036725;28;20232;-69
2022/03/29 16:07:18;;;;;;;2.03;1.92;;;15.70;26.30;;;;;;5037081;28;20264;-69
2022/03/29 16:09:45;;;;;;;1.75;1.65;;;15.60;26.00;;;;;;5038185;28;20617;-69
2022/03/29 16:12:14;;;;;;;4.72;2.10;;;15.60;26.80;;;;;;5038808;28;20689;-67
2022/03/29 16:14:41;;;;;;;2.67;2.47;;;15.50;26.40;;;;;;5038583;28;20206;-67
2022/03/29 16:17:08;;;;;;;4.78;2.47;;;15.50;26.80;;;;;;5037821;28;20235;-67
2022/03/29 16:19:35;;;;;;;2.58;2.20;;;15.40;27.00;;;;;;5036748;28;20288;-69
2022/03/29 16:22:03;;;;;;;2.63;1.90;;;15.40;27.10;;;;;;5036717;28;20201;-68
2022/03/29 16:24:32;;;;;;;4.53;2.58;;;15.30;27.10;;;;;;5036280;28;20660;-68
2022/03/29 16:26:58;;;;;;;7.22;3.35;;;15.30;28.10;;;;;;5036579;28;20257;-68
2022/03/29 16:29:26;;;;;;;6.45;3.60;;;15.20;27.70;;;;;;5036638;28;20312;-68
2022/03/29 16:31:53;;;;;;;9.45;3.08;;;15.20;28.20;;;;;;5036878;28;20288;-68
2022/03/29 16:34:20;;;;;;;6.20;3.47;;;15.10;28.40;;;;;;5036686;28;20292;-68
2022/03/29 16:36:47;;;;;;;3.63;3.10;;;15.00;28.60;;;;;;5036706;28;20237;-68
2022/03/29 16:39:15;;;;;;;13.73;5.10;;;15.00;28.90;;;;;;5036490;28;20288;-68
2022/03/29 16:41:43;;;;;;;11.10;4.13;;;14.90;28.80;;;;;;5036505;28;20208;-68
2022/03/29 16:44:10;;;;;;;7.40;3.88;;;14.80;28.80;;;;;;5036329;28;20292;-68
2022/03/29 16:46:39;;;;;;;8.15;3.50;;;14.80;29.00;;;;;;5036531;28;20280;-69
2022/03/29 16:49:06;;;;;;;4.60;3.08;;;14.70;29.10;;;;;;5036481;28;20221;-67
2022/03/29 16:51:33;;;;;;;2.80;2.60;;;14.70;29.20;;;;;;5037005;28;20292;-68
2022/03/29 16:54:01;;;;;;;6.50;3.47;;;14.70;29.10;;;;;;5036481;28;20205;-69
2022/03/29 16:56:29;;;;;;;4.60;2.90;;;14.60;29.10;;;;;;5036816;28;20708;-67
2022/03/29 16:58:59;;;;;;;2.80;2.47;;;14.60;29.20;;;;;;5035922;28;20280;-68
2022/03/29 17:01:27;;;;;;;2.72;2.50;;;14.60;29.10;;;;;;5036143;28;20185;-68
2022/03/29 17:03:54;;;;;;;3.53;3.10;;;14.50;29.10;;;;;;5036150;28;20201;-68
2022/03/29 17:06:22;;;;;;;3.22;2.45;;;14.50;29.00;;;;;;5036506;28;20252;-68
2022/03/29 17:08:50;;;;;;;2.45;2.25;;;14.40;29.00;;;;;;5037978;28;20312;-68
2022/03/29 17:11:17;;;;;;;2.28;1.80;;;14.40;29.00;;;;;;5036805;28;20304;-67
2022/03/29 17:13:44;;;;;;;2.28;2.08;;;14.30;29.30;;;;;;5038709;28;20196;-67
2022/03/29 17:16:13;;;;;;;4.20;3.10;;;14.30;29.60;;;;;;5039209;28;20311;-66
2022/03/29 17:18:40;;;;;;;4.28;3.00;;;14.20;29.20;;;;;;5038076;28;20276;-67